createdAt,value
2018-05-31T00:00:52.864Z,0.00
2018-05-31T00:01:52.855Z,0.00
2018-05-31T00:02:52.851Z,0.00
2018-05-31T00:03:52.849Z,0.00
2018-05-31T00:04:52.843Z,0.00
2018-05-31T00:05:52.842Z,0.00
2018-05-31T00:06:52.837Z,0.00
2018-05-31T00:07:52.833Z,0.00
2018-05-31T00:08:52.831Z,0.00
2018-05-31T00:09:52.824Z,0.00
2018-05-31T00:10:52.819Z,0.00
2018-05-31T00:11:52.816Z,0.00
2018-05-31T00:12:52.815Z,0.00
2018-05-31T00:13:52.809Z,0.00
2018-05-31T00:14:52.803Z,0.00
2018-05-31T00:15:52.800Z,0.00
2018-05-31T00:16:52.794Z,0.00
2018-05-31T00:17:52.791Z,0.00
2018-05-31T00:18:52.789Z,0.00
2018-05-31T00:19:52.782Z,0.00
2018-05-31T00:20:52.780Z,0.00
2018-05-31T00:21:52.776Z,0.00
2018-05-31T00:22:52.774Z,0.00
2018-05-31T00:23:52.766Z,0.00
2018-05-31T00:24:52.767Z,0.00
2018-05-31T00:25:52.760Z,0.00
2018-05-31T00:26:52.757Z,0.00
2018-05-31T00:27:52.756Z,0.00
2018-05-31T00:28:52.749Z,0.00
2018-05-31T00:29:52.742Z,0.00
2018-05-31T00:30:52.749Z,0.00
2018-05-31T00:31:52.742Z,0.00
2018-05-31T00:32:52.732Z,0.00
2018-05-31T00:33:52.730Z,0.00
2018-05-31T00:34:52.726Z,0.00
2018-05-31T00:35:52.725Z,0.00
2018-05-31T00:36:52.719Z,0.00
2018-05-31T00:37:52.712Z,0.00
2018-05-31T00:38:52.705Z,0.00
2018-05-31T00:39:52.711Z,0.00
2018-05-31T00:40:52.704Z,0.00
2018-05-31T00:41:52.700Z,0.00
2018-05-31T00:42:52.694Z,0.00
2018-05-31T00:43:52.709Z,0.00
2018-05-31T00:44:52.691Z,0.00
2018-05-31T00:45:52.722Z,0.00
2018-05-31T00:46:52.677Z,0.00
2018-05-31T00:47:52.675Z,0.00
2018-05-31T00:48:52.674Z,0.00
2018-05-31T00:49:52.668Z,0.00
2018-05-31T00:50:52.664Z,0.00
2018-05-31T00:51:52.660Z,0.00
2018-05-31T00:52:52.657Z,0.00
2018-05-31T00:53:52.649Z,0.00
2018-05-31T00:54:52.652Z,0.00
2018-05-31T00:55:52.643Z,0.00
2018-05-31T00:56:52.644Z,0.00
2018-05-31T00:57:52.633Z,0.00
2018-05-31T00:58:52.648Z,0.00
2018-05-31T00:59:52.629Z,0.00
2018-05-31T01:00:52.625Z,0.00
2018-05-31T01:01:52.620Z,0.00
2018-05-31T01:02:52.615Z,0.00
2018-05-31T01:03:52.616Z,0.00
2018-05-31T01:04:52.621Z,0.00
2018-05-31T01:05:52.607Z,0.00
2018-05-31T01:06:52.603Z,0.00
2018-05-31T01:07:52.597Z,0.00
2018-05-31T01:08:52.591Z,0.00
2018-05-31T01:09:52.581Z,0.00
2018-05-31T01:10:52.584Z,0.00
2018-05-31T01:11:52.619Z,0.00
2018-05-31T01:12:52.576Z,0.00
2018-05-31T01:13:52.572Z,0.00
2018-05-31T01:14:52.567Z,0.00
2018-05-31T01:15:52.566Z,0.00
2018-05-31T01:16:52.585Z,0.00
2018-05-31T01:17:52.602Z,0.00
2018-05-31T01:18:52.549Z,0.00
2018-05-31T01:19:52.550Z,0.00
2018-05-31T01:20:52.544Z,0.00
2018-05-31T01:21:52.544Z,0.00
2018-05-31T01:22:52.538Z,0.00
2018-05-31T01:23:52.541Z,0.00
2018-05-31T01:24:52.535Z,0.00
2018-05-31T01:25:52.527Z,0.00
2018-05-31T01:26:52.590Z,0.00
2018-05-31T01:27:52.519Z,0.00
2018-05-31T01:28:52.514Z,0.00
2018-05-31T01:29:52.512Z,0.00
2018-05-31T01:30:52.504Z,0.00
2018-05-31T02:02:51.044Z,0.00
2018-05-31T02:03:51.011Z,0.00
2018-05-31T02:04:50.997Z,0.00
2018-05-31T02:05:50.994Z,0.00
2018-05-31T02:06:50.985Z,0.00
2018-05-31T02:07:50.968Z,0.00
2018-05-31T02:08:50.965Z,0.00
2018-05-31T02:09:50.954Z,0.00
2018-05-31T02:10:50.948Z,0.00
2018-05-31T02:11:50.938Z,0.00
2018-05-31T02:12:50.930Z,0.00
2018-05-31T02:13:50.929Z,0.00
2018-05-31T02:14:50.918Z,0.00
2018-05-31T02:15:50.912Z,0.00
2018-05-31T02:16:50.910Z,0.00
2018-05-31T02:17:50.910Z,0.00
2018-05-31T02:18:50.899Z,0.00
2018-05-31T02:19:50.893Z,0.00
2018-05-31T02:20:50.891Z,0.00
2018-05-31T02:21:50.887Z,0.00
2018-05-31T02:22:50.879Z,0.00
2018-05-31T02:23:50.872Z,0.00
2018-05-31T02:24:50.871Z,0.00
2018-05-31T02:25:50.863Z,0.00
2018-05-31T02:26:50.864Z,0.00
2018-05-31T02:27:50.856Z,0.00
2018-05-31T02:28:50.854Z,0.00
2018-05-31T02:29:50.846Z,0.00
2018-05-31T02:30:50.839Z,0.00
2018-05-31T02:31:50.836Z,0.00
2018-05-31T02:32:50.833Z,0.00
2018-05-31T02:33:50.831Z,0.00
2018-05-31T02:34:50.825Z,0.00
2018-05-31T02:35:50.814Z,0.00
2018-05-31T02:36:50.815Z,0.00
2018-05-31T02:37:50.810Z,0.00
2018-05-31T02:38:50.809Z,0.00
2018-05-31T02:39:50.795Z,0.00
2018-05-31T02:40:50.799Z,0.00
2018-05-31T02:41:50.792Z,0.00
2018-05-31T02:42:50.793Z,0.00
2018-05-31T02:43:50.782Z,0.00
2018-05-31T02:44:50.785Z,0.00
2018-05-31T02:45:50.778Z,0.00
2018-05-31T02:46:50.777Z,0.00
2018-05-31T02:47:50.772Z,0.00
2018-05-31T02:48:50.765Z,0.00
2018-05-31T02:49:50.762Z,4.00
2018-05-31T02:50:50.759Z,4.00
2018-05-31T02:51:50.753Z,4.00
2018-05-31T02:52:50.745Z,4.00
2018-05-31T02:53:50.744Z,0.00
2018-05-31T02:54:50.740Z,4.00
2018-05-31T02:55:50.736Z,4.00
2018-05-31T02:56:50.729Z,4.00
2018-05-31T02:57:50.722Z,4.00
2018-05-31T02:58:50.725Z,8.00
2018-05-31T02:59:50.731Z,8.00
2018-05-31T03:00:50.717Z,8.00
2018-05-31T03:01:50.716Z,12.00
2018-05-31T03:02:50.708Z,12.00
2018-05-31T03:03:50.708Z,12.00
2018-05-31T03:04:50.701Z,16.00
2018-05-31T03:05:50.706Z,20.00
2018-05-31T03:06:50.688Z,24.00
2018-05-31T03:07:50.717Z,24.00
2018-05-31T03:08:50.686Z,32.00
2018-05-31T03:09:50.670Z,36.00
2018-05-31T03:10:50.676Z,44.00
2018-05-31T03:11:50.666Z,52.00
2018-05-31T03:12:50.672Z,60.00
2018-05-31T03:13:50.662Z,64.00
2018-05-31T03:14:50.659Z,72.00
2018-05-31T03:15:50.656Z,84.00
2018-05-31T03:16:50.656Z,92.00
2018-05-31T03:17:50.653Z,100.00
2018-05-31T03:18:50.647Z,116.00
2018-05-31T03:19:50.642Z,128.00
2018-05-31T03:20:50.729Z,140.00
2018-05-31T03:21:50.634Z,156.00
2018-05-31T03:22:50.632Z,168.00
2018-05-31T03:23:50.621Z,184.00
2018-05-31T03:24:50.621Z,208.00
2018-05-31T03:25:50.617Z,224.00
2018-05-31T03:26:50.614Z,244.00
2018-05-31T03:27:50.609Z,268.00
2018-05-31T03:28:50.610Z,292.00
2018-05-31T03:29:50.604Z,312.00
2018-05-31T03:30:50.596Z,340.00
2018-05-31T03:31:50.601Z,364.00
2018-05-31T03:32:50.590Z,392.00
2018-05-31T03:33:50.585Z,428.00
2018-05-31T03:34:50.583Z,456.00
2018-05-31T03:35:50.577Z,488.00
2018-05-31T03:36:50.577Z,524.00
2018-05-31T03:37:50.574Z,564.00
2018-05-31T03:38:50.569Z,604.00
2018-05-31T03:39:50.562Z,648.00
2018-05-31T03:40:50.566Z,696.00
2018-05-31T03:41:50.552Z,744.00
2018-05-31T03:42:50.550Z,800.00
2018-05-31T03:43:50.542Z,856.00
2018-05-31T03:44:50.539Z,912.00
2018-05-31T03:45:50.538Z,972.00
2018-05-31T03:46:50.533Z,1036.00
2018-05-31T03:47:50.524Z,1104.00
2018-05-31T03:48:50.546Z,1164.00
2018-05-31T03:49:50.522Z,1228.00
2018-05-31T03:50:50.522Z,1292.00
2018-05-31T03:51:50.523Z,1352.00
2018-05-31T03:52:50.514Z,1412.00
2018-05-31T03:53:50.512Z,1464.00
2018-05-31T03:54:50.505Z,1520.00
2018-05-31T03:55:50.505Z,1576.00
2018-05-31T03:56:50.493Z,1632.00
2018-05-31T03:57:50.493Z,1684.00
2018-05-31T03:58:50.490Z,1724.00
2018-05-31T03:59:50.484Z,1752.00
2018-05-31T04:00:50.485Z,1808.00
2018-05-31T04:01:50.479Z,1880.00
2018-05-31T04:02:50.475Z,1948.00
2018-05-31T04:03:50.480Z,2028.00
2018-05-31T04:04:50.461Z,2120.00
2018-05-31T04:05:50.459Z,2220.00
2018-05-31T04:06:50.462Z,2324.00
2018-05-31T04:07:50.443Z,2420.00
2018-05-31T04:08:50.455Z,2508.00
2018-05-31T04:09:50.445Z,2604.00
2018-05-31T04:10:50.444Z,2696.00
2018-05-31T04:11:50.442Z,2776.00
2018-05-31T04:12:50.434Z,2852.00
2018-05-31T04:13:50.431Z,2936.00
2018-05-31T04:14:50.425Z,3028.00
2018-05-31T04:15:50.433Z,3116.00
2018-05-31T04:16:50.418Z,3212.00
2018-05-31T04:17:50.412Z,3296.00
2018-05-31T04:18:50.408Z,3392.00
2018-05-31T04:19:50.407Z,3484.00
2018-05-31T04:20:50.399Z,3580.00
2018-05-31T04:21:50.403Z,3656.00
2018-05-31T04:22:50.392Z,3748.00
2018-05-31T04:23:50.393Z,3836.00
2018-05-31T04:24:50.384Z,3924.00
2018-05-31T04:25:50.386Z,3968.00
2018-05-31T04:26:50.378Z,3988.00
2018-05-31T04:27:50.375Z,4148.00
2018-05-31T04:28:50.371Z,4272.00
2018-05-31T04:29:50.366Z,4368.00
2018-05-31T04:30:50.367Z,4524.00
2018-05-31T04:31:50.359Z,4628.00
2018-05-31T04:32:50.359Z,4704.00
2018-05-31T04:33:50.352Z,4652.00
2018-05-31T04:34:50.352Z,4816.00
2018-05-31T04:35:50.350Z,4956.00
2018-05-31T04:36:50.348Z,5008.00
2018-05-31T04:37:50.341Z,5092.00
2018-05-31T04:38:50.344Z,5148.00
2018-05-31T04:39:50.327Z,5204.00
2018-05-31T04:40:50.330Z,5248.00
2018-05-31T04:41:50.327Z,5292.00
2018-05-31T04:42:50.327Z,5316.00
2018-05-31T04:43:50.321Z,5316.00
2018-05-31T04:44:50.320Z,5296.00
2018-05-31T04:45:50.316Z,5272.00
2018-05-31T04:46:50.306Z,5192.00
2018-05-31T04:47:50.310Z,4948.00
2018-05-31T04:48:50.318Z,4620.00
2018-05-31T04:49:50.305Z,4500.00
2018-05-31T04:50:50.302Z,4676.00
2018-05-31T04:51:50.299Z,5004.00
2018-05-31T04:52:50.293Z,5412.00
2018-05-31T04:53:50.290Z,5532.00
2018-05-31T04:54:50.290Z,5008.00
2018-05-31T04:55:50.288Z,5264.00
2018-05-31T04:56:50.286Z,5616.00
2018-05-31T04:57:50.280Z,5788.00
2018-05-31T04:58:50.277Z,5992.00
2018-05-31T04:59:50.281Z,6040.00
2018-05-31T05:00:50.271Z,6144.00
2018-05-31T05:01:50.275Z,6272.00
2018-05-31T05:02:50.263Z,6352.00
2018-05-31T05:03:50.268Z,6428.00
2018-05-31T05:04:50.264Z,6468.00
2018-05-31T05:05:50.254Z,6524.00
2018-05-31T05:06:50.252Z,6560.00
2018-05-31T05:07:50.253Z,6620.00
2018-05-31T05:08:50.244Z,6668.00
2018-05-31T05:09:50.245Z,6708.00
2018-05-31T05:10:50.242Z,6764.00
2018-05-31T05:11:50.238Z,6832.00
2018-05-31T05:12:50.236Z,6908.00
2018-05-31T05:13:50.231Z,6980.00
2018-05-31T05:14:50.233Z,7064.00
2018-05-31T05:15:50.230Z,7164.00
2018-05-31T05:16:50.228Z,7272.00
2018-05-31T05:17:50.226Z,7408.00
2018-05-31T05:18:50.223Z,7560.00
2018-05-31T05:19:50.222Z,7828.00
2018-05-31T05:20:50.215Z,8120.00
2018-05-31T05:21:50.216Z,8324.00
2018-05-31T05:22:50.216Z,8448.00
2018-05-31T05:23:50.206Z,8300.00
2018-05-31T05:24:50.206Z,8196.00
2018-05-31T05:25:50.203Z,8232.00
2018-05-31T05:26:50.206Z,8440.00
2018-05-31T05:27:50.199Z,8652.00
2018-05-31T05:28:50.203Z,8752.00
2018-05-31T05:29:50.198Z,8780.00
2018-05-31T05:30:50.194Z,8796.00
2018-05-31T05:31:50.190Z,8808.00
2018-05-31T05:32:50.192Z,8756.00
2018-05-31T05:33:50.199Z,8780.00
2018-05-31T05:34:50.186Z,8856.00
2018-05-31T05:35:50.222Z,8880.00
2018-05-31T05:36:50.179Z,8900.00
2018-05-31T05:37:50.179Z,8944.00
2018-05-31T05:38:50.176Z,9100.00
2018-05-31T05:39:50.173Z,9516.00
2018-05-31T05:40:50.173Z,9952.00
2018-05-31T05:41:50.164Z,10536.00
2018-05-31T05:42:50.166Z,10692.00
2018-05-31T05:43:50.167Z,11276.00
2018-05-31T05:44:50.168Z,11668.00
2018-05-31T05:45:50.162Z,11376.00
2018-05-31T05:46:50.162Z,12724.00
2018-05-31T05:47:50.156Z,13048.00
2018-05-31T05:48:50.153Z,13108.00
2018-05-31T05:49:50.164Z,13344.00
2018-05-31T05:50:50.157Z,12684.00
2018-05-31T05:51:50.157Z,13308.00
2018-05-31T05:52:50.159Z,15584.00
2018-05-31T05:53:50.149Z,12992.00
2018-05-31T05:54:50.148Z,13664.00
2018-05-31T05:55:50.149Z,12668.00
2018-05-31T05:56:50.148Z,14016.00
2018-05-31T05:57:50.145Z,13904.00
2018-05-31T05:58:50.144Z,15832.00
2018-05-31T05:59:50.147Z,14420.00
2018-05-31T06:00:50.144Z,11952.00
2018-05-31T06:01:50.187Z,13140.00
2018-05-31T06:02:50.144Z,17728.00
2018-05-31T06:03:50.145Z,18624.00
2018-05-31T06:04:50.138Z,21472.00
2018-05-31T06:05:50.147Z,18912.00
2018-05-31T06:06:50.143Z,20064.00
2018-05-31T06:07:50.141Z,18112.00
2018-05-31T06:08:50.147Z,15388.00
2018-05-31T06:09:50.148Z,18912.00
2018-05-31T06:10:50.139Z,18816.00
2018-05-31T06:11:50.144Z,20032.00
2018-05-31T06:12:50.148Z,22272.00
2018-05-31T06:13:50.185Z,22368.00
2018-05-31T06:14:50.145Z,21536.00
2018-05-31T06:15:50.143Z,22912.00
2018-05-31T06:16:50.145Z,15636.00
2018-05-31T06:17:50.144Z,16256.00
2018-05-31T06:18:50.171Z,16512.00
2018-05-31T06:19:50.165Z,22720.00
2018-05-31T06:20:50.144Z,24576.00
2018-05-31T06:21:50.145Z,25920.00
2018-05-31T06:22:50.148Z,27776.00
2018-05-31T06:23:50.149Z,26240.00
2018-05-31T06:24:50.152Z,24800.00
2018-05-31T06:25:50.150Z,18912.00
2018-05-31T06:26:50.151Z,20544.00
2018-05-31T06:27:50.153Z,26112.00
2018-05-31T06:28:50.156Z,25632.00
2018-05-31T06:29:50.159Z,25376.00
2018-05-31T06:30:50.162Z,23552.00
2018-05-31T06:31:50.156Z,20960.00
2018-05-31T06:32:50.166Z,20960.00
2018-05-31T06:33:50.172Z,27424.00
2018-05-31T06:34:50.170Z,16832.00
2018-05-31T06:35:50.165Z,20064.00
2018-05-31T06:36:50.171Z,25408.00
2018-05-31T06:37:50.175Z,23104.00
2018-05-31T06:38:50.180Z,32480.00
2018-05-31T06:39:50.183Z,33344.00
2018-05-31T06:40:50.185Z,32800.00
2018-05-31T06:41:50.189Z,22912.00
2018-05-31T06:42:50.195Z,20256.00
2018-05-31T06:43:50.188Z,23584.00
2018-05-31T06:44:50.200Z,26400.00
2018-05-31T06:45:50.244Z,29696.00
2018-05-31T06:46:50.203Z,30624.00
2018-05-31T06:47:50.199Z,29088.00
2018-05-31T06:48:50.204Z,29824.00
2018-05-31T06:49:50.207Z,25760.00
2018-05-31T06:50:50.213Z,31264.00
2018-05-31T06:51:50.214Z,32256.00
2018-05-31T06:52:50.217Z,28480.00
2018-05-31T06:53:50.222Z,22624.00
2018-05-31T06:54:50.229Z,30592.00
2018-05-31T06:55:50.231Z,32896.00
2018-05-31T06:56:50.234Z,29248.00
2018-05-31T06:57:50.240Z,32736.00
2018-05-31T06:58:50.248Z,34144.00
2018-05-31T06:59:50.250Z,28192.00
2018-05-31T07:00:50.297Z,37408.00
2018-05-31T07:01:50.261Z,21280.00
2018-05-31T07:02:50.261Z,36608.00
2018-05-31T07:03:50.267Z,32864.00
2018-05-31T07:04:50.275Z,31136.00
2018-05-31T07:05:50.275Z,41952.00
2018-05-31T07:06:50.304Z,42272.00
2018-05-31T07:07:50.290Z,34368.00
2018-05-31T07:08:50.295Z,30048.00
2018-05-31T07:09:50.296Z,32544.00
2018-05-31T07:10:50.299Z,24608.00
2018-05-31T07:11:50.306Z,27200.00
2018-05-31T07:12:50.313Z,25728.00
2018-05-31T07:13:50.315Z,45536.00
2018-05-31T07:14:50.322Z,32480.00
2018-05-31T07:15:50.348Z,69280.00
2018-05-31T07:16:50.332Z,28768.00
2018-05-31T07:17:50.343Z,53280.00
2018-05-31T07:18:50.342Z,38368.00
2018-05-31T07:19:50.349Z,68576.00
2018-05-31T07:20:50.354Z,43616.00
2018-05-31T07:21:50.415Z,40768.00
2018-05-31T07:22:50.368Z,58912.00
2018-05-31T07:23:50.374Z,30624.00
2018-05-31T07:24:50.382Z,31552.00
2018-05-31T07:25:50.389Z,62560.00
2018-05-31T07:26:50.397Z,81376.00
2018-05-31T07:27:50.400Z,84224.00
2018-05-31T07:28:50.411Z,86880.00
2018-05-31T07:29:50.416Z,76000.00
2018-05-31T07:30:50.429Z,54304.00
2018-05-31T07:31:50.431Z,43136.00
2018-05-31T07:32:50.448Z,61376.00
2018-05-31T07:33:50.460Z,88096.00
2018-05-31T07:34:50.459Z,90016.00
2018-05-31T07:35:50.471Z,91392.00
2018-05-31T07:36:50.478Z,86848.00
2018-05-31T07:37:50.514Z,87616.00
2018-05-31T07:38:50.519Z,92640.00
2018-05-31T07:39:50.515Z,89824.00
2018-05-31T07:40:50.522Z,85952.00
2018-05-31T07:41:50.542Z,86912.00
2018-05-31T07:42:50.561Z,88960.00
2018-05-31T07:43:50.561Z,89312.00
2018-05-31T07:44:50.565Z,84256.00
2018-05-31T07:45:50.574Z,81824.00
2018-05-31T07:46:50.585Z,89664.00
2018-05-31T07:47:50.600Z,87072.00
2018-05-31T07:48:50.609Z,87264.00
2018-05-31T07:49:50.626Z,90816.00
2018-05-31T07:50:50.626Z,86752.00
2018-05-31T07:51:50.644Z,92640.00
2018-05-31T07:52:50.657Z,93568.00
2018-05-31T07:53:50.674Z,95264.00
2018-05-31T07:54:50.679Z,92416.00
2018-05-31T07:55:50.712Z,88768.00
2018-05-31T07:56:50.707Z,87616.00
2018-05-31T07:57:51.623Z,82816.00
2018-05-31T07:58:50.741Z,76512.00
2018-05-31T07:59:50.833Z,76704.00
2018-05-31T08:00:50.873Z,89984.00
2018-05-31T08:01:51.612Z,93856.00
2018-05-31T08:02:50.792Z,91584.00
2018-05-31T08:03:50.925Z,81824.00
2018-05-31T08:04:50.824Z,76832.00
2018-05-31T08:05:50.839Z,81888.00
2018-05-31T08:06:50.846Z,92480.00
2018-05-31T08:07:50.866Z,86080.00
2018-05-31T08:08:50.876Z,80960.00
2018-05-31T08:09:50.904Z,85184.00
2018-05-31T08:10:50.914Z,91104.00
2018-05-31T08:11:50.923Z,92256.00
2018-05-31T08:12:50.932Z,91776.00
2018-05-31T08:13:50.950Z,91840.00
2018-05-31T08:14:50.966Z,94272.00
2018-05-31T08:15:50.980Z,91296.00
2018-05-31T08:16:50.992Z,91168.00
2018-05-31T08:17:51.008Z,91104.00
2018-05-31T08:18:51.023Z,90464.00
2018-05-31T08:19:51.037Z,91296.00
2018-05-31T08:20:51.052Z,88768.00
2018-05-31T08:21:51.070Z,76192.00
2018-05-31T08:22:51.081Z,84032.00
2018-05-31T08:23:51.096Z,72896.00
2018-05-31T08:24:51.152Z,89024.00
2018-05-31T08:25:51.212Z,90784.00
2018-05-31T08:26:51.280Z,87680.00
2018-05-31T08:27:51.574Z,87712.00
2018-05-31T08:28:51.581Z,82720.00
2018-05-31T08:29:51.390Z,83200.00
2018-05-31T08:30:51.568Z,83936.00
2018-05-31T08:31:51.497Z,81408.00
2018-05-31T08:32:51.561Z,89024.00
2018-05-31T08:33:51.539Z,85824.00
2018-05-31T08:34:51.527Z,93952.00
2018-05-31T08:35:51.674Z,84512.00
2018-05-31T08:36:51.623Z,84512.00
2018-05-31T08:37:51.496Z,88288.00
2018-05-31T08:38:51.558Z,90624.00
2018-05-31T08:39:51.735Z,89856.00
2018-05-31T08:40:51.650Z,92768.00
2018-05-31T08:41:51.493Z,90592.00
2018-05-31T08:42:51.495Z,99904.00
2018-05-31T08:43:51.463Z,105696.00
2018-05-31T08:44:51.458Z,113824.00
2018-05-31T08:45:51.505Z,106912.00
2018-05-31T08:46:51.662Z,104416.00
2018-05-31T08:47:51.812Z,115904.00
2018-05-31T08:48:51.791Z,151648.00
2018-05-31T08:49:51.709Z,156640.00
2018-05-31T08:50:51.697Z,128032.00
2018-05-31T08:51:51.934Z,109600.00
2018-05-31T08:52:51.562Z,103392.00
2018-05-31T08:53:51.599Z,110176.00
2018-05-31T08:54:51.596Z,110752.00
2018-05-31T08:55:51.613Z,114752.00
2018-05-31T08:56:51.627Z,123648.00
2018-05-31T08:57:51.656Z,73792.00
2018-05-31T08:58:51.667Z,23328.00
2018-05-31T08:59:51.686Z,136416.00
2018-05-31T09:00:51.705Z,123008.00
2018-05-31T09:01:51.725Z,120000.00
2018-05-31T09:02:51.734Z,127296.00
2018-05-31T09:03:51.752Z,129632.00
2018-05-31T09:04:51.772Z,126624.00
2018-05-31T09:05:51.792Z,120960.00
2018-05-31T09:06:51.813Z,120896.00
2018-05-31T09:07:51.833Z,122848.00
2018-05-31T09:08:51.846Z,124352.00
2018-05-31T09:09:51.867Z,114880.00
2018-05-31T09:10:51.886Z,115040.00
2018-05-31T09:11:51.907Z,127136.00
2018-05-31T09:12:51.923Z,140480.00
2018-05-31T09:13:51.937Z,136672.00
2018-05-31T09:14:51.957Z,103776.00
2018-05-31T09:15:51.979Z,101696.00
2018-05-31T09:16:52.000Z,92864.00
2018-05-31T09:17:52.017Z,89088.00
2018-05-31T09:18:52.032Z,96736.00
2018-05-31T09:19:52.052Z,97728.00
2018-05-31T09:20:52.094Z,94368.00
2018-05-31T09:21:52.088Z,100736.00
2018-05-31T09:22:52.107Z,115520.00
2018-05-31T09:23:52.137Z,143616.00
2018-05-31T09:24:52.146Z,133024.00
2018-05-31T09:25:52.163Z,93568.00
2018-05-31T09:26:52.184Z,77120.00
2018-05-31T09:27:52.199Z,75616.00
2018-05-31T09:28:52.221Z,74528.00
2018-05-31T09:29:52.243Z,92736.00
2018-05-31T09:30:52.256Z,99360.00
2018-05-31T09:31:52.279Z,102560.00
2018-05-31T09:32:52.293Z,99552.00
2018-05-31T09:33:52.311Z,99040.00
2018-05-31T09:34:52.333Z,99168.00
2018-05-31T09:35:52.345Z,94176.00
2018-05-31T09:36:52.364Z,97376.00
2018-05-31T09:37:52.381Z,99424.00
2018-05-31T09:38:52.412Z,96384.00
2018-05-31T09:39:52.417Z,91552.00
2018-05-31T09:40:52.432Z,114592.00
2018-05-31T09:41:52.454Z,107040.00
2018-05-31T09:42:52.471Z,105792.00
2018-05-31T09:43:52.485Z,109472.00
2018-05-31T09:44:52.507Z,104512.00
2018-05-31T09:45:52.524Z,101504.00
2018-05-31T09:46:52.555Z,102304.00
2018-05-31T09:47:52.568Z,106656.00
2018-05-31T09:48:52.565Z,107200.00
2018-05-31T09:49:52.592Z,105088.00
2018-05-31T09:50:52.609Z,98560.00
2018-05-31T09:51:52.630Z,99904.00
2018-05-31T09:52:52.646Z,102176.00
2018-05-31T09:53:52.667Z,102656.00
2018-05-31T09:54:52.683Z,100320.00
2018-05-31T09:55:52.698Z,99648.00
2018-05-31T09:56:52.712Z,98336.00
2018-05-31T09:57:52.737Z,98016.00
2018-05-31T09:58:52.751Z,96288.00
2018-05-31T09:59:52.772Z,98336.00
2018-05-31T10:00:52.786Z,100448.00
2018-05-31T10:01:52.807Z,100864.00
2018-05-31T10:02:52.832Z,104064.00
2018-05-31T10:03:52.848Z,105888.00
2018-05-31T10:04:52.863Z,106688.00
2018-05-31T10:05:52.893Z,109472.00
2018-05-31T10:06:52.898Z,108128.00
2018-05-31T10:07:52.915Z,107104.00
2018-05-31T10:08:52.937Z,111680.00
2018-05-31T10:09:52.957Z,113408.00
2018-05-31T10:10:52.977Z,106272.00
2018-05-31T10:11:52.998Z,108608.00
2018-05-31T10:12:53.006Z,113056.00
2018-05-31T10:13:53.030Z,112608.00
2018-05-31T10:14:53.048Z,113184.00
2018-05-31T10:15:53.067Z,94560.00
2018-05-31T10:16:53.089Z,87168.00
2018-05-31T10:17:53.106Z,92704.00
2018-05-31T10:18:53.116Z,87616.00
2018-05-31T10:19:53.147Z,102464.00
2018-05-31T10:20:53.160Z,94688.00
2018-05-31T10:21:53.184Z,104032.00
2018-05-31T10:22:53.201Z,113760.00
2018-05-31T10:23:53.220Z,117600.00
2018-05-31T10:24:53.234Z,140384.00
2018-05-31T10:25:53.262Z,121024.00
2018-05-31T10:26:53.276Z,105984.00
2018-05-31T10:27:53.289Z,98432.00
2018-05-31T10:28:53.311Z,96288.00
2018-05-31T10:29:53.327Z,90880.00
2018-05-31T10:30:53.349Z,93920.00
2018-05-31T10:31:53.365Z,93344.00
2018-05-31T10:32:53.402Z,88832.00
2018-05-31T10:33:53.404Z,89856.00
2018-05-31T10:34:53.421Z,97440.00
2018-05-31T10:35:53.438Z,96352.00
2018-05-31T10:36:53.461Z,103168.00
2018-05-31T10:37:53.471Z,103776.00
2018-05-31T10:38:53.492Z,101280.00
2018-05-31T10:39:53.513Z,93856.00
2018-05-31T10:40:53.530Z,91040.00
2018-05-31T10:41:53.552Z,90848.00
2018-05-31T10:42:53.566Z,93056.00
2018-05-31T10:43:53.586Z,95744.00
2018-05-31T10:44:53.608Z,93024.00
2018-05-31T10:45:53.626Z,91968.00
2018-05-31T10:46:53.638Z,89024.00
2018-05-31T10:47:53.659Z,88672.00
2018-05-31T10:48:53.674Z,91904.00
2018-05-31T10:49:53.718Z,89600.00
2018-05-31T10:50:53.715Z,83232.00
2018-05-31T10:51:53.738Z,79584.00
2018-05-31T10:52:53.749Z,85152.00
2018-05-31T10:53:53.780Z,85248.00
2018-05-31T10:54:53.781Z,84544.00
2018-05-31T10:55:53.806Z,90624.00
2018-05-31T10:56:53.835Z,92416.00
2018-05-31T10:57:53.843Z,90592.00
2018-05-31T10:58:53.864Z,90176.00
2018-05-31T10:59:53.906Z,88352.00
2018-05-31T11:00:53.897Z,92672.00
2018-05-31T11:01:53.919Z,93056.00
2018-05-31T11:02:53.943Z,88288.00
2018-05-31T11:03:53.959Z,89056.00
2018-05-31T11:04:53.975Z,87296.00
2018-05-31T11:05:53.996Z,86336.00
2018-05-31T11:06:54.012Z,92864.00
2018-05-31T11:07:54.036Z,91936.00
2018-05-31T11:08:54.063Z,87520.00
2018-05-31T11:09:54.067Z,83488.00
2018-05-31T11:10:54.087Z,85888.00
2018-05-31T11:11:54.109Z,87296.00
2018-05-31T11:12:54.126Z,87136.00
2018-05-31T11:13:54.146Z,90528.00
2018-05-31T11:14:54.213Z,89696.00
2018-05-31T11:15:54.178Z,84672.00
2018-05-31T11:16:54.201Z,75424.00
2018-05-31T11:17:54.228Z,89696.00
2018-05-31T11:18:54.236Z,87360.00
2018-05-31T11:19:54.255Z,89952.00
2018-05-31T11:20:54.275Z,83872.00
2018-05-31T11:21:54.283Z,88960.00
2018-05-31T11:22:54.310Z,85504.00
2018-05-31T11:23:54.328Z,80672.00
2018-05-31T11:24:54.349Z,81856.00
2018-05-31T11:25:54.388Z,85312.00
2018-05-31T11:26:54.428Z,89984.00
2018-05-31T11:27:54.395Z,86336.00
2018-05-31T11:28:54.411Z,83072.00
2018-05-31T11:29:54.441Z,79520.00
2018-05-31T11:30:54.460Z,75968.00
2018-05-31T11:31:54.487Z,76256.00
2018-05-31T11:32:54.502Z,76896.00
2018-05-31T11:33:54.511Z,76320.00
2018-05-31T11:34:54.540Z,81664.00
2018-05-31T11:35:54.558Z,87648.00
2018-05-31T11:36:54.566Z,86336.00
2018-05-31T11:37:54.586Z,83488.00
2018-05-31T11:38:54.603Z,81920.00
2018-05-31T11:39:54.625Z,81152.00
2018-05-31T11:40:54.645Z,80192.00
2018-05-31T11:41:54.667Z,81920.00
2018-05-31T11:42:54.684Z,86112.00
2018-05-31T11:43:54.699Z,83616.00
2018-05-31T11:44:54.717Z,82336.00
2018-05-31T11:45:54.738Z,82336.00
2018-05-31T11:46:54.756Z,83296.00
2018-05-31T11:47:54.774Z,84224.00
2018-05-31T11:48:54.793Z,83424.00
2018-05-31T11:49:54.811Z,82560.00
2018-05-31T11:50:54.835Z,80224.00
2018-05-31T11:51:54.847Z,79808.00
2018-05-31T11:52:54.870Z,81920.00
2018-05-31T11:53:54.893Z,81632.00
2018-05-31T11:54:54.900Z,78400.00
2018-05-31T11:55:54.927Z,76640.00
2018-05-31T11:56:54.950Z,80992.00
2018-05-31T11:57:54.964Z,77600.00
2018-05-31T11:58:54.991Z,66496.00
2018-05-31T11:59:55.001Z,60576.00
2018-05-31T12:00:55.022Z,74176.00
2018-05-31T12:01:55.042Z,75616.00
2018-05-31T12:02:55.078Z,74464.00
2018-05-31T12:03:55.076Z,78976.00
2018-05-31T12:04:55.098Z,82496.00
2018-05-31T12:05:55.119Z,81408.00
2018-05-31T12:06:55.134Z,80992.00
2018-05-31T12:07:55.155Z,80768.00
2018-05-31T12:08:55.171Z,85888.00
2018-05-31T12:09:55.194Z,85952.00
2018-05-31T12:10:55.256Z,78304.00
2018-05-31T12:11:55.217Z,79296.00
2018-05-31T12:12:55.249Z,79872.00
2018-05-31T12:13:55.259Z,79744.00
2018-05-31T12:14:55.280Z,78144.00
2018-05-31T12:15:55.296Z,76448.00
2018-05-31T12:16:55.320Z,77632.00
2018-05-31T12:17:55.335Z,78848.00
2018-05-31T12:18:55.355Z,75456.00
2018-05-31T12:19:55.368Z,69856.00
2018-05-31T12:20:55.397Z,85280.00
2018-05-31T12:21:55.411Z,85728.00
2018-05-31T12:22:55.421Z,87040.00
2018-05-31T12:23:55.449Z,86816.00
2018-05-31T12:24:55.460Z,86880.00
2018-05-31T12:25:55.486Z,91552.00
2018-05-31T12:26:55.503Z,92608.00
2018-05-31T12:27:55.512Z,95712.00
2018-05-31T12:28:55.532Z,98624.00
2018-05-31T12:29:56.049Z,103392.00
2018-05-31T12:30:55.571Z,104768.00
2018-05-31T12:31:55.587Z,95936.00
2018-05-31T12:32:55.609Z,49120.00
2018-05-31T12:33:55.620Z,15300.00
2018-05-31T12:34:55.639Z,14788.00
2018-05-31T12:35:55.661Z,14740.00
2018-05-31T12:36:55.672Z,14748.00
2018-05-31T12:37:55.707Z,14792.00